Time;durP1;ratioP1;P1;durP2;ratioP2;P2;SDS_P1;SDS_P2;PMS_P1;PMS_P2;Temp;Humidity;BMP_temperature;BMP_pressure;BME280_temperature;BME280_humidity;BME280_pressure;Samples;Min_cycle;Max_cycle;Signal;HPM_P1;HPM_P2
2023/04/28 00:00:07;;;;;;;5.63;4.33;;;14.50;99.90;;;14.72;nan;100446.97;5032766;28;20633;-65
2023/04/28 00:02:34;;;;;;;5.50;4.30;;;14.40;99.90;;;14.65;nan;100444.06;5031375;28;20667;-65
2023/04/28 00:05:01;;;;;;;4.53;4.10;;;14.40;99.90;;;14.56;nan;100436.22;5032407;28;20983;-65
2023/04/28 00:07:28;;;;;;;6.00;4.87;;;14.30;99.90;;;14.50;nan;100434.16;5032330;28;20632;-65
2023/04/28 00:09:56;;;;;;;9.07;5.97;;;14.20;99.90;;;14.42;nan;100429.59;5032138;28;20704;-68
2023/04/28 00:12:23;;;;;;;6.97;5.53;;;14.10;99.90;;;14.41;nan;100429.75;5032591;28;20656;-65
2023/04/28 00:14:50;;;;;;;8.17;5.67;;;14.10;99.90;;;14.38;nan;100420.34;5031995;28;20666;-65
2023/04/28 00:17:17;;;;;;;10.50;6.13;;;14.10;99.90;;;14.35;nan;100417.19;5031624;28;20625;-65
2023/04/28 00:19:44;;;;;;;9.00;6.00;;;14.00;99.90;;;14.31;nan;100415.81;5033501;28;20712;-65
2023/04/28 00:22:11;;;;;;;4.97;3.73;;;14.00;99.90;;;14.28;nan;100411.63;5031480;28;21040;-66
2023/04/28 00:24:38;;;;;;;5.73;4.17;;;13.90;99.90;;;14.26;nan;100405.69;5031892;28;20633;-65
2023/04/28 00:27:05;;;;;;;5.63;5.03;;;14.10;99.90;;;14.20;nan;100392.31;5014559;28;20635;-65
2023/04/28 00:29:32;;;;;;;8.63;5.70;;;13.90;99.90;;;14.17;nan;100385.53;5027396;28;20650;-67
2023/04/28 00:31:59;;;;;;;6.90;5.13;;;13.90;99.90;;;14.16;nan;100386.47;5030311;28;20656;-65
2023/04/28 00:34:26;;;;;;;7.40;5.53;;;13.80;99.90;;;14.16;nan;100375.19;5030666;28;20693;-65
2023/04/28 00:36:52;;;;;;;6.80;5.40;;;13.80;99.90;;;14.18;nan;100371.47;5031245;28;20639;-66
2023/04/28 00:39:21;;;;;;;4.90;4.40;;;13.80;99.90;;;14.19;nan;100372.25;5027395;28;20696;-65
2023/04/28 00:41:48;;;;;;;5.37;4.87;;;13.90;99.90;;;14.18;nan;100371.47;5013578;28;20725;-65
2023/04/28 00:44:15;;;;;;;10.90;5.80;;;13.90;99.90;;;14.21;nan;100367.69;5027796;28;20640;-65
2023/04/28 00:46:43;;;;;;;6.70;5.57;;;13.90;99.90;;;14.22;nan;100372.00;5021821;28;20628;-66
2023/04/28 00:49:10;;;;;;;6.17;5.23;;;13.90;99.90;;;14.22;nan;100362.34;5030735;28;21266;-65
2023/04/28 00:51:37;;;;;;;9.40;5.73;;;13.90;99.90;;;14.22;nan;100358.88;5013131;28;21131;-67
2023/04/28 00:54:05;;;;;;;9.60;5.60;;;13.90;99.90;;;14.21;nan;100357.19;5016017;28;20633;-65
2023/04/28 00:56:33;;;;;;;8.43;5.83;;;13.90;99.90;;;14.20;nan;100348.53;5031398;28;21262;-65
2023/04/28 00:59:00;;;;;;;8.60;5.50;;;13.90;99.90;;;14.19;nan;100353.91;5017951;28;20682;-67
2023/04/28 01:01:27;;;;;;;7.13;5.10;;;13.90;99.90;;;14.19;nan;100344.22;5029447;28;20664;-65
2023/04/28 01:03:54;;;;;;;9.57;5.80;;;13.90;99.90;;;14.19;nan;100340.78;5033240;28;21000;-66
2023/04/28 01:06:22;;;;;;;8.50;5.77;;;13.90;99.90;;;14.19;nan;100341.59;5030357;28;20678;-66
2023/04/28 01:08:49;;;;;;;10.97;6.37;;;13.90;99.90;;;14.17;nan;100329.59;5030569;28;20643;-67
2023/04/28 01:11:17;;;;;;;9.50;6.20;;;13.90;99.90;;;14.20;nan;100334.56;5012606;28;20675;-66
2023/04/28 01:13:44;;;;;;;6.43;5.60;;;13.90;99.90;;;14.19;nan;100327.66;5030218;28;20628;-66
2023/04/28 01:16:11;;;;;;;7.27;6.13;;;13.90;99.90;;;14.17;nan;100334.84;5011722;28;20633;-66
2023/04/28 01:18:41;;;;;;;8.80;5.53;;;13.90;99.90;;;14.15;nan;100335.00;5030821;28;20691;-66
2023/04/28 01:21:08;;;;;;;7.30;5.57;;;13.90;99.90;;;14.14;nan;100329.88;5012975;28;20612;-66
2023/04/28 01:23:35;;;;;;;6.07;5.27;;;13.90;99.90;;;14.14;nan;100332.50;5029658;28;20639;-69
2023/04/28 01:26:02;;;;;;;7.90;5.83;;;13.80;99.90;;;14.12;nan;100326.59;5030894;28;20617;-68
2023/04/28 01:28:29;;;;;;;6.40;5.70;;;13.80;99.90;;;14.11;nan;100338.03;5029629;28;20698;-68
2023/04/28 01:30:56;;;;;;;9.87;5.60;;;13.80;99.90;;;14.07;nan;100324.38;5031695;28;21176;-68
2023/04/28 01:33:23;;;;;;;7.37;5.63;;;13.90;99.90;;;14.07;nan;100323.53;5030169;28;20722;-69
2023/04/28 01:35:50;;;;;;;4.80;4.33;;;13.80;99.90;;;14.08;nan;100325.19;5030489;28;20722;-67
2023/04/28 01:38:17;;;;;;;7.87;5.60;;;13.80;99.90;;;14.07;nan;100336.66;5026526;28;20675;-67
2023/04/28 01:40:44;;;;;;;7.37;5.87;;;13.80;99.90;;;14.07;nan;100336.66;5021846;28;20637;-68
2023/04/28 01:43:11;;;;;;;9.63;6.43;;;13.80;99.90;;;14.08;nan;100335.66;5016687;28;21237;-68
2023/04/28 01:45:38;;;;;;;8.07;5.87;;;13.80;99.90;;;14.09;nan;100329.47;5010792;28;20922;-67
2023/04/28 01:48:05;;;;;;;9.23;6.23;;;13.80;99.90;;;14.08;nan;100327.81;5012823;28;20992;-67
2023/04/28 01:50:32;;;;;;;12.70;5.90;;;13.80;99.90;;;14.02;nan;100332.66;5027733;28;20694;-68
2023/04/28 01:52:59;;;;;;;11.50;6.77;;;13.80;99.90;;;14.01;nan;100338.84;5030261;28;20656;-67
2023/04/28 01:55:26;;;;;;;11.47;7.57;;;13.70;99.90;;;13.96;nan;100343.72;5026382;28;20648;-67
2023/04/28 01:57:53;;;;;;;10.13;7.30;;;13.70;99.90;;;13.88;nan;100334.88;5023350;28;20640;-67
2023/04/28 02:00:20;;;;;;;8.97;6.50;;;13.60;99.90;;;13.84;nan;100331.69;5029516;28;21096;-68
2023/04/28 02:02:47;;;;;;;11.83;6.87;;;13.60;99.90;;;13.83;nan;100330.03;5028720;28;20664;-68
2023/04/28 02:05:14;;;;;;;9.57;5.70;;;13.50;99.90;;;13.84;nan;100328.25;5029968;28;20632;-66
2023/04/28 02:07:41;;;;;;;9.03;5.30;;;13.50;99.90;;;13.86;nan;100326.31;5029622;28;20690;-67
2023/04/28 02:10:09;;;;;;;9.43;5.17;;;13.60;99.90;;;13.91;nan;100331.97;5031354;28;21199;-68
2023/04/28 02:12:35;;;;;;;6.70;4.80;;;13.60;99.90;;;13.91;nan;100319.69;5013545;28;20664;-67
2023/04/28 02:15:03;;;;;;;7.20;4.87;;;13.60;99.90;;;13.88;nan;100319.16;5031186;28;20640;-67
2023/04/28 02:17:30;;;;;;;8.43;5.80;;;13.60;99.90;;;13.84;nan;100333.50;5030007;28;20698;-67
2023/04/28 02:19:57;;;;;;;9.80;5.87;;;13.60;99.90;;;13.81;nan;100334.59;5030589;28;20722;-67
2023/04/28 02:22:24;;;;;;;9.47;5.97;;;13.50;99.90;;;13.82;nan;100335.44;5030320;28;20645;-69
2023/04/28 02:24:51;;;;;;;8.13;5.73;;;13.50;99.90;;;13.81;nan;100339.00;5030747;28;20686;-67
2023/04/28 02:27:18;;;;;;;6.37;4.83;;;13.50;99.90;;;13.83;nan;100339.69;5029074;28;20640;-68
2023/04/28 02:29:45;;;;;;;12.70;6.20;;;13.50;99.90;;;13.81;nan;100331.13;5029259;28;20677;-67
2023/04/28 02:32:12;;;;;;;12.37;6.90;;;13.50;99.90;;;13.84;nan;100329.06;5020729;28;20659;-68
2023/04/28 02:34:39;;;;;;;9.13;6.30;;;13.50;99.90;;;13.88;nan;100319.94;5019739;28;21209;-67
2023/04/28 02:37:06;;;;;;;9.37;6.50;;;13.60;99.90;;;13.90;nan;100323.28;5018103;28;20647;-67
2023/04/28 02:39:33;;;;;;;9.27;6.03;;;13.60;99.90;;;13.92;nan;100326.59;5018733;28;20664;-67
2023/04/28 02:42:00;;;;;;;8.00;6.13;;;13.60;99.90;;;13.91;nan;100324.94;5024374;28;20668;-67
2023/04/28 02:44:27;;;;;;;8.83;6.30;;;13.60;99.90;;;13.87;nan;100333.22;5034118;22;20693;-66
2023/04/28 02:46:54;;;;;;;8.10;5.93;;;13.60;99.90;;;13.86;nan;100339.44;4991277;28;20640;-65
2023/04/28 02:49:21;;;;;;;8.67;5.40;;;13.60;99.90;;;13.86;nan;100342.84;4996083;28;20629;-66
2023/04/28 02:51:48;;;;;;;7.33;5.67;;;13.60;99.90;;;13.87;nan;100341.06;4995839;28;20637;-66
2023/04/28 02:54:15;;;;;;;7.40;5.63;;;13.60;99.90;;;13.85;nan;100332.53;5013990;28;20664;-67
2023/04/28 02:56:42;;;;;;;6.40;5.27;;;13.60;99.90;;;13.85;nan;100327.28;5005254;28;20637;-66
2023/04/28 02:59:09;;;;;;;5.63;5.03;;;13.60;99.90;;;13.84;nan;100315.16;5007324;28;20678;-67
2023/04/28 03:01:36;;;;;;;4.83;4.33;;;13.50;99.90;;;13.81;nan;100308.38;5014241;28;20694;-66
2023/04/28 03:04:03;;;;;;;4.80;4.10;;;13.50;99.90;;;13.75;nan;100298.44;5014324;28;20660;-66
2023/04/28 03:06:30;;;;;;;4.67;4.17;;;13.50;99.90;;;13.70;nan;100298.03;5015250;28;20636;-67
2023/04/28 03:08:57;;;;;;;5.33;4.83;;;13.40;99.90;;;13.66;nan;100288.78;5009648;28;20634;-66
2023/04/28 03:11:24;;;;;;;5.20;4.40;;;13.40;99.90;;;13.65;nan;100281.88;5011119;28;20642;-66
2023/04/28 03:13:51;;;;;;;6.27;4.70;;;13.40;99.90;;;13.65;nan;100279.25;5007034;28;21395;-66
2023/04/28 03:16:18;;;;;;;5.97;3.83;;;13.30;99.90;;;13.64;nan;100269.75;5014054;28;20703;-66
2023/04/28 03:18:45;;;;;;;3.50;3.20;;;13.40;99.90;;;13.61;nan;100275.25;5011725;28;21225;-66
2023/04/28 03:21:12;;;;;;;3.80;3.50;;;13.30;99.90;;;13.53;nan;100271.66;5007364;28;20625;-66
2023/04/28 03:23:39;;;;;;;5.17;3.80;;;13.30;99.90;;;13.45;nan;100261.88;4998528;28;20664;-66
2023/04/28 03:26:06;;;;;;;3.77;3.37;;;13.20;99.90;;;13.42;nan;100250.81;5012622;28;20617;-66
2023/04/28 03:28:33;;;;;;;4.63;3.80;;;13.20;99.90;;;13.39;nan;100246.72;5002871;28;21189;-66
2023/04/28 03:31:01;;;;;;;3.93;3.63;;;13.10;99.90;;;13.36;nan;100246.13;5014907;28;20610;-66
2023/04/28 03:33:28;;;;;;;8.37;5.50;;;13.10;99.90;;;13.35;nan;100257.59;4996153;28;20660;-66
2023/04/28 03:35:55;;;;;;;9.80;5.90;;;13.10;99.90;;;13.38;nan;100263.38;5013469;28;20645;-66
2023/04/28 03:38:22;;;;;;;7.33;5.10;;;13.10;99.90;;;13.39;nan;100257.19;5012050;28;20637;-66
2023/04/28 03:40:49;;;;;;;6.30;5.30;;;13.10;99.90;;;13.41;nan;100263.13;5010559;28;20676;-65
2023/04/28 03:43:16;;;;;;;5.57;4.80;;;13.10;99.90;;;13.41;nan;100263.13;5012860;28;21007;-66
2023/04/28 03:45:43;;;;;;;7.37;5.30;;;13.10;99.90;;;13.45;nan;100263.66;5010920;28;20633;-66
2023/04/28 03:48:10;;;;;;;5.30;4.53;;;13.20;99.90;;;13.47;nan;100267.81;5013444;28;20988;-65
2023/04/28 03:50:39;;;;;;;5.90;4.43;;;13.20;99.90;;;13.46;nan;100260.91;5026468;28;21017;-65
2023/04/28 03:53:07;;;;;;;5.83;4.93;;;13.20;99.90;;;13.46;nan;100257.47;5005179;28;20673;-66
2023/04/28 03:55:37;;;;;;;4.30;3.90;;;13.20;99.90;;;13.43;nan;100265.59;5007894;28;21002;-66
2023/04/28 03:58:07;;;;;;;6.03;5.20;;;13.20;99.90;;;13.40;nan;100266.69;5008057;28;20650;-66
2023/04/28 04:00:34;;;;;;;4.33;3.90;;;13.10;99.90;;;13.32;nan;100260.47;4998488;28;20893;-66
2023/04/28 04:03:01;;;;;;;6.83;4.40;;;13.10;99.90;;;13.31;nan;100254.41;4995999;28;20630;-66
2023/04/28 04:05:28;;;;;;;2.40;1.00;;;13.00;99.90;;;13.21;nan;100259.66;5011894;28;20663;-66
2023/04/28 04:07:55;;;;;;;4.17;3.20;;;13.00;99.90;;;13.14;nan;100244.59;5004015;28;20629;-66
2023/04/28 04:10:22;;;;;;;3.83;2.57;;;12.90;99.90;;;13.14;nan;100249.81;5012954;28;20645;-66
2023/04/28 04:12:51;;;;;;;5.23;3.57;;;12.90;99.90;;;13.12;nan;100249.97;5011732;28;20640;-65
2023/04/28 04:15:18;;;;;;;3.07;2.83;;;12.90;99.90;;;13.09;nan;100252.03;5013897;28;20722;-65
2023/04/28 04:17:46;;;;;;;3.73;3.40;;;12.80;99.90;;;13.05;nan;100248.84;5012121;28;20637;-66
2023/04/28 04:20:13;;;;;;;3.57;3.27;;;12.80;99.90;;;12.99;nan;100244.13;5010811;28;20669;-66
2023/04/28 04:22:40;;;;;;;3.27;3.00;;;12.70;99.90;;;12.92;nan;100239.56;5012457;28;20703;-65
2023/04/28 04:25:07;;;;;;;2.30;2.20;;;12.70;99.90;;;12.90;nan;100244.13;5010875;28;20663;-66
2023/04/28 04:27:34;;;;;;;3.40;2.70;;;12.60;99.90;;;12.86;nan;100245.34;5012814;28;20699;-66
2023/04/28 04:30:01;;;;;;;4.77;3.20;;;12.60;99.90;;;12.81;nan;100243.13;5010651;28;20702;-65
2023/04/28 04:32:28;;;;;;;3.07;2.80;;;12.50;99.90;;;12.83;nan;100232.50;5012323;28;21015;-66
2023/04/28 04:34:56;;;;;;;3.77;2.30;;;12.60;99.90;;;12.87;nan;100237.34;4994302;28;20658;-66
2023/04/28 04:37:23;;;;;;;4.57;3.03;;;12.60;99.90;;;12.88;nan;100235.56;5003721;28;21051;-66
2023/04/28 04:39:50;;;;;;;3.20;2.90;;;12.60;99.90;;;12.88;nan;100231.16;4997596;28;20666;-65
2023/04/28 04:42:18;;;;;;;2.90;2.60;;;12.60;99.90;;;12.83;nan;100233.34;5006706;28;20709;-66
2023/04/28 04:44:51;;;;;;;3.67;3.33;;;12.60;99.90;;;12.79;nan;100238.97;4991714;28;20658;-66
2023/04/28 04:47:18;;;;;;;2.97;2.70;;;12.50;99.90;;;12.82;nan;100230.88;5003740;28;20634;-66
2023/04/28 04:49:46;;;;;;;3.67;2.77;;;12.50;99.90;;;12.83;nan;100227.28;4995884;28;20836;-66
2023/04/28 04:52:13;;;;;;;4.37;3.67;;;12.50;99.90;;;12.84;nan;100232.38;5002540;28;20837;-67
2023/04/28 04:54:40;;;;;;;7.20;4.00;;;12.60;99.90;;;12.89;nan;100234.59;4998059;28;20670;-67
2023/04/28 04:57:07;;;;;;;4.70;3.30;;;12.60;99.90;;;12.88;nan;100230.34;4999882;28;21013;-67
2023/04/28 04:59:34;;;;;;;2.33;2.23;;;12.60;99.90;;;12.87;nan;100229.50;5010116;28;21307;-66
2023/04/28 05:02:01;;;;;;;8.37;3.50;;;12.60;99.90;;;12.86;nan;100225.22;5004842;28;20644;-66
2023/04/28 05:04:28;;;;;;;5.00;3.00;;;12.60;99.90;;;12.88;nan;100222.47;5011279;28;20656;-67
2023/04/28 05:06:55;;;;;;;2.70;2.30;;;12.60;99.90;;;12.87;nan;100215.56;5005334;28;21272;-67
2023/04/28 05:09:22;;;;;;;3.87;2.60;;;12.60;99.90;;;12.86;nan;100213.94;5020736;28;20637;-67
2023/04/28 05:11:49;;;;;;;2.83;2.40;;;12.60;99.90;;;12.87;nan;100218.19;4990808;28;20630;-67
2023/04/28 05:14:16;;;;;;;4.00;3.30;;;12.60;99.90;;;12.89;nan;100224.94;4997057;28;20668;-67
2023/04/28 05:16:44;;;;;;;2.20;1.60;;;12.60;99.90;;;12.93;nan;100230.75;5007954;28;20637;-66
2023/04/28 05:19:11;;;;;;;2.60;2.00;;;12.70;99.90;;;12.89;nan;100224.13;5006447;28;20684;-66
2023/04/28 05:21:38;;;;;;;4.70;4.20;;;12.60;99.90;;;12.89;nan;100229.34;4991869;28;20626;-64
2023/04/28 05:24:05;;;;;;;4.63;3.80;;;12.60;99.90;;;12.85;nan;100223.56;4998133;28;20669;-66
2023/04/28 05:26:32;;;;;;;6.77;3.10;;;12.60;99.90;;;12.75;nan;100227.97;4991474;28;20622;-66
2023/04/28 05:28:59;;;;;;;1.60;1.30;;;12.50;99.90;;;12.72;nan;100240.47;5008298;28;21192;-67
2023/04/28 05:31:25;;;;;;;6.03;4.10;;;12.40;99.90;;;12.64;nan;100242.94;5010936;28;20624;-67
2023/04/28 05:33:52;;;;;;;4.00;2.70;;;12.40;99.90;;;12.61;nan;100241.41;5010990;28;20699;-67
2023/04/28 05:36:19;;;;;;;6.57;3.57;;;12.40;99.90;;;12.56;nan;100237.53;5011120;28;21264;-66
2023/04/28 05:38:46;;;;;;;6.27;3.57;;;12.30;99.90;;;12.50;nan;100235.44;5010114;28;20629;-67
2023/04/28 05:41:13;;;;;;;5.87;3.37;;;12.20;99.90;;;12.49;nan;100218.91;5011074;28;20657;-66
2023/04/28 05:43:40;;;;;;;4.07;2.97;;;12.20;99.90;;;12.45;nan;100220.97;5002242;28;20716;-66
2023/04/28 05:46:07;;;;;;;4.70;3.73;;;12.20;99.90;;;12.45;nan;100226.22;5011326;28;20633;-67
2023/04/28 05:48:45;;;;;;;6.70;5.20;;;12.10;99.90;;;12.41;nan;100214.31;5010591;28;20632;-67
2023/04/28 05:51:12;;;;;;;5.83;4.53;;;12.20;99.90;;;12.42;nan;100233.47;5002932;28;20638;-68
2023/04/28 05:53:39;;;;;;;6.27;4.17;;;12.10;99.90;;;12.43;nan;100237.75;5002924;28;20674;-67
2023/04/28 05:56:06;;;;;;;5.17;3.60;;;12.10;99.90;;;12.40;nan;100233.63;4995529;28;20684;-66
2023/04/28 05:58:33;;;;;;;5.90;5.03;;;12.20;99.90;;;12.41;nan;100242.31;5008683;28;20640;-66
2023/04/28 06:01:00;;;;;;;7.17;4.67;;;12.10;99.90;;;12.41;nan;100250.16;5008321;28;20699;-65
2023/04/28 06:03:27;;;;;;;8.63;4.40;;;12.10;99.90;;;12.43;nan;100262.16;5010140;28;20672;-66
2023/04/28 06:05:54;;;;;;;6.47;4.90;;;12.20;99.90;;;12.46;nan;100264.47;5006856;28;21186;-66
2023/04/28 06:08:21;;;;;;;7.37;4.93;;;12.20;99.90;;;12.43;nan;100262.16;5011395;28;20641;-66
2023/04/28 06:10:48;;;;;;;10.07;4.80;;;12.20;99.90;;;12.43;nan;100250.84;5007487;28;20637;-66
2023/04/28 06:13:15;;;;;;;5.23;4.20;;;12.10;99.90;;;12.43;nan;100250.84;5007817;28;20640;-66
2023/04/28 06:15:42;;;;;;;5.10;2.80;;;12.20;99.90;;;12.41;nan;100250.16;5005258;28;20634;-66
2023/04/28 06:18:09;;;;;;;7.53;3.90;;;12.20;99.90;;;12.39;nan;100249.44;4997241;28;20642;-66
2023/04/28 06:20:37;;;;;;;6.30;4.50;;;12.10;99.90;;;12.34;nan;100247.22;5007592;28;20974;-66
2023/04/28 06:23:04;;;;;;;4.77;2.90;;;12.10;99.90;;;12.29;nan;100228.47;4996821;28;20658;-66
2023/04/28 06:25:31;;;;;;;8.63;4.17;;;12.00;99.90;;;12.29;nan;100225.84;4994731;28;21244;-66
2023/04/28 06:27:58;;;;;;;5.13;3.77;;;12.00;99.90;;;12.31;nan;100249.25;5009322;28;21227;-66
2023/04/28 06:30:25;;;;;;;6.03;4.43;;;12.00;99.90;;;12.29;nan;100249.38;5009084;28;20626;-66
2023/04/28 06:32:52;;;;;;;4.43;4.03;;;12.10;99.90;;;12.32;nan;100256.16;5009302;28;20633;-65
2023/04/28 06:35:19;;;;;;;4.70;3.30;;;12.10;99.90;;;12.29;nan;100251.16;5005555;28;20674;-66
2023/04/28 06:37:46;;;;;;;5.40;4.13;;;12.00;99.90;;;12.32;nan;100230.00;5006077;28;20629;-66
2023/04/28 06:40:13;;;;;;;6.20;4.40;;;12.10;99.90;;;12.33;nan;100224.63;5002867;28;20646;-66
2023/04/28 06:42:40;;;;;;;4.60;3.93;;;12.10;99.90;;;12.38;nan;100243.38;5008053;28;20665;-66
2023/04/28 06:45:08;;;;;;;6.47;3.87;;;12.10;99.90;;;12.43;nan;100243.84;5005275;28;20718;-66
2023/04/28 06:47:36;;;;;;;8.23;3.83;;;12.20;99.90;;;12.47;nan;100244.38;5001125;28;20696;-66
2023/04/28 06:50:03;;;;;;;5.57;4.23;;;12.20;99.90;;;12.50;nan;100251.16;5002615;28;20642;-66
2023/04/28 06:52:30;;;;;;;5.90;4.33;;;12.20;99.90;;;12.52;nan;100244.00;5003726;28;21213;-65
2023/04/28 06:55:08;;;;;;;4.80;3.57;;;12.20;99.90;;;12.54;nan;100235.06;5003494;28;20657;-66
2023/04/28 06:57:36;;;;;;;10.10;4.80;;;12.30;99.90;;;12.60;nan;100228.44;5007910;28;20633;-66
2023/04/28 07:00:04;;;;;;;4.20;3.77;;;12.30;99.90;;;12.66;nan;100233.16;5001813;28;20669;-67
2023/04/28 07:02:32;;;;;;;3.70;3.37;;;12.40;99.90;;;12.71;nan;100233.59;5009077;28;20644;-67
2023/04/28 07:04:59;;;;;;;3.13;2.90;;;12.40;99.90;;;12.78;nan;100232.06;5000382;28;20665;-65
2023/04/28 07:07:26;;;;;;;2.97;2.67;;;12.50;99.90;;;12.81;nan;100227.41;5004033;28;20650;-67
2023/04/28 07:09:53;;;;;;;6.63;4.73;;;12.60;99.90;;;12.88;nan;100228.53;4993150;28;22385;-67
2023/04/28 07:12:21;;;;;;;5.53;4.00;;;12.60;99.90;;;12.93;nan;100222.88;5005047;28;20633;-67
2023/04/28 07:14:49;;;;;;;8.00;4.60;;;12.70;99.90;;;13.01;nan;100228.28;5009018;28;21244;-67
2023/04/28 07:17:16;;;;;;;4.57;3.10;;;12.70;99.90;;;12.97;nan;100234.75;5009427;28;21009;-69
2023/04/28 07:19:43;;;;;;;3.33;3.10;;;12.70;99.90;;;13.04;nan;100234.13;5009984;28;20664;-67
2023/04/28 07:22:10;;;;;;;5.13;3.80;;;12.80;99.90;;;13.08;nan;100230.25;5004132;28;21201;-66
2023/04/28 07:24:38;;;;;;;4.10;2.87;;;12.80;99.90;;;13.12;nan;100226.41;5004636;28;20665;-67
2023/04/28 07:27:05;;;;;;;7.00;4.00;;;12.90;99.90;;;13.22;nan;100205.47;5002876;28;20618;-67
2023/04/28 07:29:33;;;;;;;6.90;4.70;;;12.90;99.90;;;13.26;nan;100222.56;5010508;28;21205;-67
2023/04/28 07:32:03;;;;;;;5.57;4.27;;;13.00;99.90;;;13.26;nan;100233.03;5006433;28;21036;-67
2023/04/28 07:34:34;;;;;;;5.10;2.67;;;13.00;99.90;;;13.22;nan;100227.22;5008371;28;20711;-66
2023/04/28 07:37:02;;;;;;;6.20;3.67;;;13.00;99.90;;;13.22;nan;100215.94;5008913;28;20630;-67
2023/04/28 07:39:33;;;;;;;3.40;2.67;;;12.90;99.90;;;13.28;nan;100214.56;5001581;28;20630;-67
2023/04/28 07:42:02;;;;;;;8.80;4.10;;;12.90;99.90;;;13.27;nan;100221.56;4994193;28;20623;-67
2023/04/28 07:44:29;;;;;;;6.37;3.87;;;13.00;99.90;;;13.36;nan;100217.31;5005724;28;20740;-67
2023/04/28 07:46:58;;;;;;;5.17;3.20;;;13.10;99.90;;;13.42;nan;100214.13;5012204;28;20633;-67
2023/04/28 07:49:29;;;;;;;5.87;3.47;;;13.10;99.90;;;13.53;nan;100208.75;5013260;28;20623;-67
2023/04/28 07:51:56;;;;;;;5.70;3.90;;;13.20;99.90;;;13.67;nan;100214.38;5012523;28;20628;-67
2023/04/28 07:54:24;;;;;;;6.70;3.50;;;13.40;99.90;;;13.74;nan;100222.53;5012383;28;20657;-67
2023/04/28 07:56:51;;;;;;;4.50;3.50;;;13.40;99.90;;;13.85;nan;100222.38;5003581;28;20679;-66
2023/04/28 07:59:18;;;;;;;7.57;4.80;;;13.60;99.90;;;14.02;nan;100212.00;5007718;28;20705;-66
2023/04/28 08:01:45;;;;;;;4.80;3.37;;;13.70;99.90;;;14.17;nan;100204.50;4999316;28;20727;-67
2023/04/28 08:04:12;;;;;;;9.03;5.50;;;13.90;99.90;;;14.19;nan;100212.22;4992489;28;21315;-66
2023/04/28 08:06:40;;;;;;;6.53;4.90;;;13.90;99.90;;;14.15;nan;100206.44;5004561;28;20637;-66
2023/04/28 08:09:07;;;;;;;6.13;3.80;;;13.90;99.90;;;14.25;nan;100207.22;5011935;28;20621;-66
2023/04/28 08:11:34;;;;;;;8.20;5.93;;;13.90;99.90;;;14.27;nan;100220.22;5008871;28;20642;-67
2023/04/28 08:14:01;;;;;;;1.90;1.80;;;14.00;99.90;;;14.30;nan;100209.44;5000429;28;20650;-66
2023/04/28 08:16:30;;;;;;;7.33;3.77;;;14.00;99.90;;;14.34;nan;100214.25;5009247;28;20634;-66
2023/04/28 08:18:58;;;;;;;3.27;2.97;;;14.00;99.90;;;14.45;nan;100214.09;5011963;28;20637;-66
2023/04/28 08:21:25;;;;;;;4.27;3.13;;;14.10;99.90;;;14.57;nan;100214.69;5011272;28;20701;-67
2023/04/28 08:23:52;;;;;;;6.60;4.33;;;14.20;99.90;;;14.64;nan;100218.41;5011738;28;20659;-67
2023/04/28 08:26:20;;;;;;;5.27;1.57;;;14.30;99.90;;;14.69;nan;100210.94;5011353;28;20626;-67
2023/04/28 08:28:47;;;;;;;4.70;4.30;;;14.40;99.90;;;14.77;nan;100224.16;5012842;28;21075;-67
2023/04/28 08:31:14;;;;;;;2.87;2.40;;;14.50;99.90;;;14.76;nan;100222.47;5013152;28;20767;-67
2023/04/28 08:33:43;;;;;;;4.10;3.40;;;14.50;99.90;;;14.58;nan;100224.25;5012675;28;20663;-67
2023/04/28 08:36:13;;;;;;;4.47;4.07;;;14.30;99.90;;;14.67;nan;100218.94;5010813;28;20641;-67
2023/04/28 08:38:41;;;;;;;4.10;3.50;;;14.40;99.90;;;14.76;nan;100219.84;5010568;28;21395;-67
2023/04/28 08:41:08;;;;;;;5.50;4.83;;;14.50;99.90;;;15.01;nan;100229.69;5002719;28;20994;-67
2023/04/28 08:43:35;;;;;;;3.90;3.45;;;14.70;99.90;;;15.39;nan;100226.78;5032112;22;20654;-68
2023/04/28 08:46:06;;;;;;;4.20;3.50;;;15.00;99.90;;;16.49;nan;100216.50;4998398;28;21214;-67
2023/04/28 08:48:43;;;;;;;3.10;2.80;;;15.90;99.90;;;17.59;nan;100225.91;4996886;28;20638;-64
2023/04/28 08:51:15;;;;;;;3.10;2.70;;;17.10;99.90;;;18.34;nan;100232.56;4998589;28;20640;-65
2023/04/28 08:53:50;;;;;;;4.67;1.37;;;18.00;99.90;;;18.34;nan;100230.75;4987247;28;21439;-64
2023/04/28 08:56:37;;;;;;;3.63;3.17;;;18.20;99.90;;;17.59;nan;100233.84;5005387;28;20761;-67
2023/04/28 08:59:05;;;;;;;2.63;2.37;;;17.50;99.90;;;17.31;nan;100232.44;5008316;28;21184;-64
2023/04/28 09:01:32;;;;;;;4.17;2.90;;;17.10;99.90;;;17.20;nan;100243.31;4992272;28;20662;-65
2023/04/28 09:04:02;;;;;;;4.80;3.13;;;16.90;99.90;;;17.11;nan;100245.09;5002799;28;21229;-66
2023/04/28 09:06:36;;;;;;;4.77;3.00;;;16.80;99.90;;;16.92;nan;100238.31;5005889;28;21238;-67
2023/04/28 09:09:44;;;;;;;1.90;1.80;;;16.70;99.90;;;16.70;nan;100243.31;5001016;28;21011;-66
2023/04/28 09:12:11;;;;;;;3.57;3.07;;;16.50;99.90;;;16.48;nan;100242.06;4968198;28;20643;-65
2023/04/28 09:14:38;;;;;;;2.00;1.90;;;16.30;99.90;;;16.43;nan;100254.00;4968388;28;20666;-67
2023/04/28 09:17:13;;;;;;;3.93;2.87;;;16.20;99.90;;;16.30;nan;100250.00;4986690;28;20625;-66
2023/04/28 09:19:43;;;;;;;2.90;2.57;;;16.00;99.90;;;16.20;nan;100251.94;5000618;28;20633;-67
2023/04/28 09:22:10;;;;;;;2.70;2.40;;;15.90;99.90;;;16.08;nan;100249.69;5011021;28;20657;-67
2023/04/28 09:24:54;;;;;;;2.40;2.10;;;15.90;99.90;;;16.02;nan;100250.31;5001566;28;20688;-67
2023/04/28 09:27:27;;;;;;;1.60;1.50;;;15.70;99.90;;;16.00;nan;100241.75;5010368;28;20956;-66
2023/04/28 09:29:54;;;;;;;4.77;2.10;;;15.70;99.90;;;15.99;nan;100240.91;5005490;28;20662;-68
2023/04/28 09:32:22;;;;;;;2.57;2.37;;;15.70;99.90;;;15.97;nan;100242.06;4992575;28;20630;-67
2023/04/28 09:34:52;;;;;;;2.90;2.70;;;15.60;99.90;;;16.03;nan;100246.72;4999274;28;20672;-66
2023/04/28 09:37:22;;;;;;;3.47;2.77;;;15.70;99.90;;;16.20;nan;100249.31;5005622;28;20631;-67
2023/04/28 09:39:51;;;;;;;2.50;2.30;;;15.80;99.90;;;16.32;nan;100249.84;4991574;28;20646;-65
2023/04/28 09:42:39;;;;;;;2.63;2.50;;;16.00;99.90;;;16.39;nan;100248.25;5008733;28;20739;-65
2023/04/28 09:45:12;;;;;;;3.00;2.40;;;16.10;99.90;;;16.34;nan;100255.78;4997545;28;21253;-65
2023/04/28 09:47:42;;;;;;;3.27;3.00;;;16.00;99.90;;;16.27;nan;100257.38;4995125;28;20630;-65
2023/04/28 09:50:13;;;;;;;2.03;1.93;;;16.00;99.90;;;16.20;nan;100248.47;5002920;28;20635;-67
2023/04/28 09:52:44;;;;;;;3.00;2.80;;;15.90;99.90;;;16.12;nan;100254.50;5026945;28;20613;-65
2023/04/28 09:55:12;;;;;;;2.57;2.40;;;15.80;99.90;;;16.14;nan;100254.34;4992802;28;20673;-68
2023/04/28 09:57:39;;;;;;;2.20;2.07;;;15.80;99.90;;;16.14;nan;100255.16;5005487;28;20642;-68
2023/04/28 10:00:08;;;;;;;3.60;3.30;;;15.80;99.90;;;16.17;nan;100262.75;5008216;28;20633;-66
2023/04/28 10:02:36;;;;;;;3.77;3.20;;;15.80;99.90;;;16.19;nan;100257.31;5005790;28;20642;-67
2023/04/28 10:05:11;;;;;;;3.20;2.90;;;15.80;99.90;;;16.22;nan;100260.50;5006737;28;20665;-66
2023/04/28 10:07:39;;;;;;;3.30;3.00;;;15.90;99.90;;;16.24;nan;100255.06;5010567;28;20625;-65
2023/04/28 10:10:07;;;;;;;2.57;2.20;;;15.90;99.90;;;16.24;nan;100260.34;5003172;28;20638;-65
2023/04/28 10:12:37;;;;;;;2.90;2.70;;;15.90;99.90;;;16.21;nan;100263.25;5010684;28;20632;-64
2023/04/28 10:15:06;;;;;;;3.33;3.03;;;15.90;99.90;;;16.20;nan;100265.09;4996751;28;21271;-67
2023/04/28 10:17:35;;;;;;;4.73;3.27;;;15.90;99.90;;;16.21;nan;100260.63;5005407;28;20672;-66
2023/04/28 10:20:04;;;;;;;3.90;3.50;;;15.90;99.90;;;16.23;nan;100266.56;4990176;28;20657;-65
2023/04/28 10:22:45;;;;;;;2.67;2.43;;;15.90;99.90;;;16.21;nan;100272.00;5007664;28;21173;-65
2023/04/28 10:25:28;;;;;;;2.53;2.33;;;15.90;99.90;;;16.17;nan;100268.03;4996808;28;20704;-65
2023/04/28 10:27:58;;;;;;;3.97;2.97;;;15.90;99.90;;;16.13;nan;100266.69;4992880;28;20645;-65